Time;durP1;ratioP1;P1;durP2;ratioP2;P2;SDS_P1;SDS_P2;PMS_P1;PMS_P2;Temp;Humidity;BMP_temperature;BMP_pressure;BME280_temperature;BME280_humidity;BME280_pressure;Samples;Min_cycle;Max_cycle;Signal;HPM_P1;HPM_P2
2022/12/12 00:01:37;;;;;;;14.07;6.90;;;0.80;99.90;;;;;;5010310;28;20076;-43
2022/12/12 00:04:03;;;;;;;16.10;7.00;;;0.80;99.90;;;;;;5009586;28;20069;-43
2022/12/12 00:06:29;;;;;;;16.95;7.70;;;0.80;99.90;;;;;;5006990;28;20042;-40
2022/12/12 00:08:55;;;;;;;14.23;6.47;;;0.80;99.90;;;;;;5006215;28;20037;-41
2022/12/12 00:11:23;;;;;;;18.52;7.07;;;0.80;99.90;;;;;;5006409;28;20104;-42
2022/12/12 00:13:49;;;;;;;16.45;7.30;;;0.80;99.90;;;;;;5009365;28;20050;-42
2022/12/12 00:16:15;;;;;;;15.68;7.28;;;0.80;99.90;;;;;;5009220;28;20042;-43
2022/12/12 00:18:41;;;;;;;14.48;6.10;;;0.80;99.90;;;;;;5007502;28;20041;-42
2022/12/12 00:21:14;;;;;;;17.23;7.05;;;0.80;99.90;;;;;;5006302;28;20116;-42
2022/12/12 00:23:39;;;;;;;;;;;0.80;99.90;;;;;;5007788;28;20073;-41
2022/12/12 00:26:10;;;;;;;15.50;6.45;;;0.80;99.90;;;;;;5007373;28;19925;-42
2022/12/12 00:28:36;;;;;;;16.52;7.40;;;0.80;99.90;;;;;;5008135;28;20037;-43
2022/12/12 00:31:02;;;;;;;16.40;6.25;;;0.80;99.90;;;;;;5007150;28;20033;-42
2022/12/12 00:33:28;;;;;;;16.40;7.15;;;0.80;99.90;;;;;;5008892;28;20048;-43
2022/12/12 00:35:54;;;;;;;15.93;7.32;;;0.80;99.90;;;;;;4997658;28;20042;-42
2022/12/12 00:38:22;;;;;;;16.35;6.90;;;0.80;99.90;;;;;;5003465;28;20038;-42
2022/12/12 00:40:48;;;;;;;15.35;6.43;;;0.90;99.90;;;;;;5005209;28;20395;-42
2022/12/12 00:43:14;;;;;;;18.70;7.45;;;0.90;99.90;;;;;;5004140;28;20473;-43
2022/12/12 00:45:40;;;;;;;16.20;6.57;;;0.90;99.90;;;;;;5006843;28;20142;-43
2022/12/12 00:48:06;;;;;;;16.60;7.10;;;0.90;99.90;;;;;;5007483;28;20499;-41
2022/12/12 00:50:33;;;;;;;17.75;7.57;;;0.90;99.90;;;;;;5009952;28;20045;-43
2022/12/12 00:53:00;;;;;;;19.95;7.88;;;0.90;99.90;;;;;;5011084;28;20054;-40
2022/12/12 00:55:26;;;;;;;19.63;7.38;;;0.90;99.90;;;;;;5004906;28;20084;-45
2022/12/12 00:57:52;;;;;;;17.02;8.15;;;0.90;99.90;;;;;;5009684;28;20487;-42
2022/12/12 01:00:18;;;;;;;17.67;7.55;;;0.90;99.90;;;;;;5008428;28;20121;-42
2022/12/12 01:02:44;;;;;;;16.75;7.80;;;0.90;99.90;;;;;;5004517;28;20038;-42
2022/12/12 01:05:10;;;;;;;15.57;7.10;;;0.90;99.90;;;;;;5007568;28;20100;-43
2022/12/12 01:07:36;;;;;;;16.75;7.28;;;0.90;99.90;;;;;;5009916;28;20483;-40
2022/12/12 01:10:02;;;;;;;16.38;6.35;;;0.90;99.90;;;;;;5009513;28;20050;-41
2022/12/12 01:12:28;;;;;;;15.32;7.30;;;0.90;99.90;;;;;;5006324;28;20033;-42
2022/12/12 01:14:54;;;;;;;17.17;7.47;;;0.90;99.90;;;;;;5008892;28;20437;-43
2022/12/12 01:17:19;;;;;;;14.65;6.53;;;0.90;99.90;;;;;;5002833;28;20546;-43
2022/12/12 01:19:45;;;;;;;15.25;6.95;;;0.90;99.90;;;;;;5008539;28;20055;-42
2022/12/12 01:22:11;;;;;;;16.55;7.20;;;0.90;99.90;;;;;;5003043;28;20521;-41
2022/12/12 01:24:36;;;;;;;15.98;7.15;;;0.90;99.90;;;;;;5002796;28;20100;-42
2022/12/12 01:27:02;;;;;;;15.52;7.63;;;0.90;99.90;;;;;;5006980;28;20033;-42
2022/12/12 01:29:28;;;;;;;15.90;6.75;;;0.90;99.90;;;;;;5004532;28;20064;-43
2022/12/12 01:31:54;;;;;;;17.73;6.97;;;0.90;99.90;;;;;;5000839;28;20048;-41
2022/12/12 01:34:19;;;;;;;15.25;6.25;;;0.90;99.90;;;;;;5008166;28;20418;-44
2022/12/12 01:36:45;;;;;;;17.13;7.65;;;0.90;99.90;;;;;;5007712;28;20038;-40
2022/12/12 01:39:11;;;;;;;17.48;7.57;;;0.90;99.90;;;;;;5005315;28;20038;-44
2022/12/12 01:41:36;;;;;;;16.33;6.80;;;0.90;99.90;;;;;;5007682;28;20506;-41
2022/12/12 01:44:10;;;;;;;17.63;7.18;;;0.90;99.90;;;;;;5008211;28;20033;-41
2022/12/12 01:46:43;;;;;;;15.20;7.15;;;0.90;99.90;;;;;;5000735;28;20117;-42
2022/12/12 01:49:25;;;;;;;17.08;7.22;;;0.90;99.90;;;;;;5005836;28;20064;-40
2022/12/12 01:51:55;;;;;;;16.90;7.88;;;0.80;99.90;;;;;;5003955;28;20510;-43
2022/12/12 01:54:28;;;;;;;14.35;6.18;;;0.80;99.90;;;;;;5001242;28;20405;-42
2022/12/12 01:56:56;;;;;;;19.98;8.02;;;0.80;99.90;;;;;;5006452;28;20533;-42
2022/12/12 01:59:24;;;;;;;12.98;5.88;;;0.80;99.90;;;;;;5001315;28;20045;-45
2022/12/12 02:01:51;;;;;;;14.95;7.15;;;0.80;99.90;;;;;;5005196;28;20045;-42
2022/12/12 02:04:17;;;;;;;13.10;6.40;;;0.80;99.90;;;;;;5007675;28;20074;-43
2022/12/12 02:06:44;;;;;;;15.70;7.50;;;0.80;99.90;;;;;;5006053;28;20062;-43
2022/12/12 02:09:12;;;;;;;17.63;7.30;;;0.80;99.90;;;;;;5011368;28;20049;-42
2022/12/12 02:11:47;;;;;;;16.45;7.47;;;0.80;99.90;;;;;;5004923;28;20057;-43
2022/12/12 02:14:18;;;;;;;12.80;5.85;;;0.80;99.90;;;;;;5006761;28;20040;-42
2022/12/12 02:16:43;;;;;;;16.25;7.55;;;0.80;99.90;;;;;;5005129;28;20368;-40
2022/12/12 02:19:15;;;;;;;16.33;7.15;;;0.80;99.90;;;;;;5005047;28;20041;-40
2022/12/12 02:21:47;;;;;;;18.23;7.87;;;0.80;99.90;;;;;;5007644;28;20123;-43
2022/12/12 02:24:37;;;;;;;13.25;5.60;;;0.80;99.90;;;;;;5008384;28;20293;-43
2022/12/12 02:27:26;;;;;;;16.33;6.85;;;0.90;99.90;;;;;;5002979;28;20068;-43
2022/12/12 02:30:04;;;;;;;15.02;6.20;;;0.90;99.90;;;;;;5006541;28;20475;-43
2022/12/12 02:32:48;;;;;;;13.38;6.20;;;0.90;99.90;;;;;;5005159;28;20074;-42
2022/12/12 02:35:31;;;;;;;14.85;7.03;;;0.80;99.90;;;;;;5007389;28;20037;-44
2022/12/12 02:38:15;;;;;;;;;;;0.80;99.90;;;;;;5004682;28;20037;-43
2022/12/12 02:40:52;;;;;;;14.45;6.13;;;0.80;99.90;;;;;;5005648;28;20391;-41
2022/12/12 02:44:00;;;;;;;12.70;5.90;;;0.80;99.90;;;;;;5003162;28;20041;-42
2022/12/12 02:46:53;;;;;;;16.40;7.50;;;0.80;99.90;;;;;;4991489;28;20050;-41
2022/12/12 02:49:35;;;;;;;15.02;6.65;;;0.80;99.90;;;;;;4989730;28;20053;-43
2022/12/12 02:52:02;;;;;;;13.93;6.53;;;0.80;99.90;;;;;;5001737;28;20038;-43
2022/12/12 02:54:28;;;;;;;13.05;6.00;;;0.80;99.90;;;;;;5007029;28;20042;-40
2022/12/12 02:56:59;;;;;;;13.35;6.60;;;0.80;99.90;;;;;;5006590;28;20046;-41
2022/12/12 02:59:32;;;;;;;15.43;7.38;;;0.80;99.90;;;;;;5004457;28;20033;-40
2022/12/12 03:02:23;;;;;;;12.38;6.07;;;0.80;99.90;;;;;;5005606;28;20038;-45
2022/12/12 03:07:56;;;;;;;15.38;6.63;;;0.80;99.90;;;;;;5007168;28;20049;-42
2022/12/12 03:10:52;;;;;;;13.85;6.43;;;0.80;99.90;;;;;;5007956;28;20135;-42
2022/12/12 03:13:41;;;;;;;12.65;6.22;;;0.80;99.90;;;;;;5001913;28;20684;-41
2022/12/12 03:16:09;;;;;;;14.85;6.53;;;0.80;99.90;;;;;;5004442;28;21383;-42
2022/12/12 03:18:53;;;;;;;14.32;6.00;;;0.80;99.90;;;;;;5001618;28;20050;-41
2022/12/12 03:21:36;;;;;;;17.23;7.53;;;0.80;99.90;;;;;;5001052;28;20057;-44
2022/12/12 03:24:09;;;;;;;15.93;7.40;;;0.80;99.90;;;;;;5005668;28;20100;-42
2022/12/12 03:26:40;;;;;;;;;;;0.80;99.90;;;;;;5004950;28;20042;-41
2022/12/12 03:29:10;;;;;;;14.80;6.53;;;0.80;99.90;;;;;;4997772;28;19925;-40
2022/12/12 03:31:38;;;;;;;15.38;6.78;;;0.80;99.90;;;;;;5002831;28;20049;-40
2022/12/12 03:34:16;;;;;;;15.75;7.43;;;0.70;99.90;;;;;;5002679;28;20117;-41
2022/12/12 03:37:09;;;;;;;13.90;6.50;;;0.80;99.90;;;;;;5004657;28;20116;-42
2022/12/12 03:39:39;;;;;;;;;;;0.80;99.90;;;;;;5003240;28;20046;-43
2022/12/12 03:42:17;;;;;;;12.65;5.60;;;0.80;99.90;;;;;;5004039;28;19952;-43
2022/12/12 03:44:49;;;;;;;12.75;6.38;;;0.80;99.90;;;;;;5002845;28;20554;-40
2022/12/12 03:47:31;;;;;;;14.00;6.25;;;0.80;99.90;;;;;;5004007;28;20045;-41
2022/12/12 03:50:19;;;;;;;10.27;4.97;;;0.80;99.90;;;;;;5001808;28;20511;-40
2022/12/12 03:53:13;;;;;;;16.10;7.22;;;0.80;99.90;;;;;;5002019;28;20392;-40
2022/12/12 03:55:53;;;;;;;17.33;7.30;;;0.80;99.90;;;;;;5003078;28;20502;-41
2022/12/12 03:58:39;;;;;;;13.90;5.88;;;0.80;99.90;;;;;;5002031;28;20033;-42
2022/12/12 04:01:09;;;;;;;13.30;5.75;;;0.80;99.90;;;;;;5001872;28;20144;-46
2022/12/12 04:03:59;;;;;;;14.38;6.85;;;0.80;99.90;;;;;;5003450;28;20049;-44
2022/12/12 04:06:40;;;;;;;13.85;6.47;;;0.80;99.90;;;;;;5004697;28;20566;-39
2022/12/12 04:15:16;;;;;;;14.18;6.03;;;0.90;99.90;;;;;;5004493;28;20487;-41
2022/12/12 04:18:12;;;;;;;15.80;6.45;;;0.90;99.90;;;;;;5005895;28;20053;-40
2022/12/12 04:24:03;;;;;;;14.80;6.05;;;0.90;99.90;;;;;;5010810;28;20065;-40
2022/12/12 04:26:42;;;;;;;13.55;6.22;;;0.90;99.90;;;;;;4931829;29;20476;-42
2022/12/12 04:29:27;;;;;;;15.50;6.50;;;0.90;99.90;;;;;;4998043;28;20057;-43
2022/12/12 04:32:12;;;;;;;13.27;6.25;;;0.90;99.90;;;;;;5001533;28;20422;-44
2022/12/12 04:34:47;;;;;;;15.38;6.57;;;0.90;99.90;;;;;;5009103;28;20046;-43
2022/12/12 04:37:18;;;;;;;15.82;7.45;;;0.90;99.90;;;;;;5004781;28;20128;-40
2022/12/12 04:39:48;;;;;;;15.65;6.57;;;0.90;99.90;;;;;;5009390;28;20543;-43
2022/12/12 04:42:17;;;;;;;12.88;6.10;;;0.90;99.90;;;;;;5010077;28;20040;-44
2022/12/12 04:44:43;;;;;;;16.13;6.70;;;0.90;99.90;;;;;;5007616;28;20052;-43
2022/12/12 04:47:11;;;;;;;13.23;6.07;;;0.90;99.90;;;;;;5007328;28;20049;-41
2022/12/12 04:49:40;;;;;;;13.65;6.75;;;0.90;99.90;;;;;;5009477;28;20046;-42
2022/12/12 04:52:09;;;;;;;16.88;7.50;;;0.80;99.90;;;;;;5001862;28;20044;-42
2022/12/12 04:54:39;;;;;;;14.50;6.68;;;0.90;99.90;;;;;;5003667;28;20050;-42
2022/12/12 04:57:08;;;;;;;13.60;6.30;;;0.90;99.90;;;;;;5007598;28;20038;-39
2022/12/12 04:59:35;;;;;;;14.88;6.55;;;0.90;99.90;;;;;;5001961;28;20503;-43
2022/12/12 05:02:14;;;;;;;14.30;5.82;;;0.90;99.90;;;;;;5006676;28;20044;-43
2022/12/12 05:05:09;;;;;;;14.25;5.65;;;0.90;99.90;;;;;;5005886;28;20050;-42
2022/12/12 05:07:40;;;;;;;14.80;6.57;;;0.90;99.90;;;;;;5005854;28;20096;-42
2022/12/12 05:10:12;;;;;;;16.58;7.35;;;0.90;99.90;;;;;;5003246;28;20049;-40
2022/12/12 05:12:43;;;;;;;15.53;7.43;;;0.90;99.90;;;;;;5006979;28;20613;-43
2022/12/12 05:15:09;;;;;;;13.98;6.95;;;0.80;99.90;;;;;;5007193;28;20301;-45
2022/12/12 05:17:45;;;;;;;14.07;6.47;;;0.90;99.90;;;;;;5005397;28;20041;-44
2022/12/12 05:20:12;;;;;;;15.77;7.30;;;0.90;99.90;;;;;;5006815;28;20050;-40
2022/12/12 05:22:37;;;;;;;13.73;6.63;;;0.80;99.90;;;;;;5007094;28;20046;-40
2022/12/12 05:25:03;;;;;;;15.15;6.70;;;0.80;99.90;;;;;;5003873;28;20049;-41
2022/12/12 05:27:29;;;;;;;15.35;7.40;;;0.80;99.90;;;;;;5003104;28;20507;-44
2022/12/12 05:29:55;;;;;;;15.93;6.20;;;0.80;99.90;;;;;;5004353;28;20140;-43
2022/12/12 05:32:20;;;;;;;14.02;6.72;;;0.80;99.90;;;;;;5005694;28;20053;-41
2022/12/12 05:34:46;;;;;;;16.55;6.85;;;0.80;99.90;;;;;;5007700;28;20041;-43
2022/12/12 05:37:12;;;;;;;14.48;6.70;;;0.80;99.90;;;;;;5003392;28;20135;-40
2022/12/12 05:39:37;;;;;;;14.98;7.10;;;0.80;99.90;;;;;;5005810;28;20048;-41
2022/12/12 05:42:03;;;;;;;14.23;6.75;;;0.80;99.90;;;;;;5006189;28;20491;-41
2022/12/12 05:44:29;;;;;;;15.95;6.85;;;0.80;99.90;;;;;;5006037;28;20500;-45
2022/12/12 05:46:55;;;;;;;16.83;7.43;;;0.80;99.90;;;;;;5008789;28;20129;-43
2022/12/12 05:49:20;;;;;;;13.88;6.45;;;0.80;99.90;;;;;;5003339;28;20525;-41
2022/12/12 05:51:46;;;;;;;13.95;6.50;;;0.80;99.90;;;;;;5001462;28;20089;-40
2022/12/12 05:54:12;;;;;;;14.50;6.63;;;0.70;99.90;;;;;;5008816;28;20045;-44
2022/12/12 05:56:38;;;;;;;14.25;6.45;;;0.80;99.90;;;;;;5005432;28;20038;-42
2022/12/12 05:59:04;;;;;;;17.23;6.70;;;0.80;99.90;;;;;;5006277;28;20048;-42
2022/12/12 06:01:30;;;;;;;16.33;7.28;;;0.70;99.90;;;;;;5004123;28;20029;-42
2022/12/12 06:03:56;;;;;;;16.52;7.53;;;0.80;99.90;;;;;;5005525;28;20503;-44
2022/12/12 06:06:22;;;;;;;14.98;6.45;;;0.70;99.90;;;;;;5005955;28;20057;-42
2022/12/12 06:08:47;;;;;;;14.90;6.88;;;0.70;99.90;;;;;;5005392;28;20038;-42
2022/12/12 06:11:13;;;;;;;16.02;6.20;;;0.70;99.90;;;;;;5005285;28;20475;-44
2022/12/12 06:13:39;;;;;;;14.35;6.43;;;0.70;99.90;;;;;;5005807;28;20057;-42
2022/12/12 06:16:11;;;;;;;15.95;6.43;;;0.70;99.90;;;;;;5007836;28;20519;-43
2022/12/12 06:18:37;;;;;;;14.60;5.72;;;0.70;99.90;;;;;;5003207;28;20046;-43
2022/12/12 06:21:05;;;;;;;11.68;5.25;;;0.70;99.90;;;;;;5005387;28;20096;-40
2022/12/12 06:23:33;;;;;;;13.23;5.93;;;0.70;99.90;;;;;;5006517;28;20087;-43
2022/12/12 06:25:59;;;;;;;12.95;6.13;;;0.70;99.90;;;;;;5008335;28;20042;-41
2022/12/12 06:28:25;;;;;;;14.27;6.50;;;0.70;99.90;;;;;;5006684;28;20834;-41
2022/12/12 06:30:50;;;;;;;14.57;6.57;;;0.70;99.90;;;;;;4999552;28;20049;-40
2022/12/12 06:33:16;;;;;;;13.30;6.32;;;0.70;99.90;;;;;;5002886;28;20048;-42
2022/12/12 06:35:42;;;;;;;14.65;6.75;;;0.70;99.90;;;;;;5004138;28;20119;-41
2022/12/12 06:38:07;;;;;;;14.30;6.25;;;0.70;99.90;;;;;;5002632;28;20042;-42
2022/12/12 06:40:33;;;;;;;14.82;6.63;;;0.70;99.90;;;;;;5003804;28;20038;-41
2022/12/12 06:42:58;;;;;;;12.23;6.25;;;0.70;99.90;;;;;;5003533;28;20545;-43
2022/12/12 06:45:24;;;;;;;17.23;7.85;;;0.70;99.90;;;;;;5000879;28;20505;-39
2022/12/12 06:47:50;;;;;;;14.77;7.47;;;0.70;99.90;;;;;;5005463;28;20069;-43
2022/12/12 06:50:16;;;;;;;14.95;7.30;;;0.70;99.90;;;;;;5003667;28;20054;-42
2022/12/12 06:52:42;;;;;;;16.27;7.20;;;0.70;99.90;;;;;;5000044;28;20482;-43
2022/12/12 06:55:08;;;;;;;19.23;7.90;;;0.70;99.90;;;;;;5003528;28;20128;-40
2022/12/12 06:57:33;;;;;;;16.92;7.40;;;0.70;99.90;;;;;;5008219;28;20467;-41
2022/12/12 06:59:59;;;;;;;16.33;6.80;;;0.70;99.90;;;;;;5000539;28;20049;-41
2022/12/12 07:02:25;;;;;;;14.77;6.07;;;0.70;99.90;;;;;;4999151;28;20042;-40
2022/12/12 07:04:50;;;;;;;12.18;5.38;;;0.70;99.90;;;;;;5001581;28;20048;-42
2022/12/12 07:07:16;;;;;;;14.50;6.68;;;0.70;99.90;;;;;;5000056;28;20054;-41
2022/12/12 07:09:42;;;;;;;13.85;6.93;;;0.70;99.90;;;;;;5003089;28;20081;-40
2022/12/12 07:12:07;;;;;;;13.57;6.05;;;0.70;99.90;;;;;;4998444;28;20045;-40
2022/12/12 07:14:33;;;;;;;15.73;7.10;;;0.70;99.90;;;;;;4990864;28;20402;-43
2022/12/12 07:16:59;;;;;;;14.80;7.05;;;0.70;99.90;;;;;;5001902;28;20038;-41
2022/12/12 07:19:25;;;;;;;15.73;7.35;;;0.70;99.90;;;;;;5004364;28;20038;-42
2022/12/12 07:21:51;;;;;;;12.80;5.78;;;0.70;99.90;;;;;;5006846;28;20112;-40
2022/12/12 07:24:16;;;;;;;14.02;6.00;;;0.70;99.90;;;;;;5008708;28;20590;-42
2022/12/12 07:26:42;;;;;;;14.88;6.90;;;0.70;99.90;;;;;;5002784;28;20165;-44
2022/12/12 07:29:08;;;;;;;18.77;6.75;;;0.70;99.90;;;;;;4995855;28;20042;-39
2022/12/12 07:31:34;;;;;;;16.30;7.18;;;0.70;99.90;;;;;;5005536;28;20087;-42
2022/12/12 07:33:59;;;;;;;17.50;6.80;;;0.70;99.90;;;;;;5008631;28;20133;-41
2022/12/12 07:36:25;;;;;;;15.43;6.53;;;0.70;99.90;;;;;;5005589;28;20042;-42
2022/12/12 07:38:51;;;;;;;15.02;6.18;;;0.70;99.90;;;;;;5004924;28;20037;-43
2022/12/12 07:41:19;;;;;;;13.93;5.63;;;0.70;99.90;;;;;;5002091;28;20046;-42
2022/12/12 07:43:45;;;;;;;13.43;5.68;;;0.70;99.90;;;;;;5001989;28;20039;-37
2022/12/12 07:46:21;;;;;;;15.05;6.55;;;0.70;99.90;;;;;;5004630;28;20414;-37
2022/12/12 07:48:46;;;;;;;15.88;7.30;;;0.70;99.90;;;;;;5001251;28;20472;-37
2022/12/12 07:51:13;;;;;;;13.27;6.00;;;0.70;99.90;;;;;;5002081;28;20124;-38
2022/12/12 07:53:39;;;;;;;15.98;5.95;;;0.70;99.90;;;;;;5002606;28;20042;-40
2022/12/12 07:56:10;;;;;;;13.25;6.50;;;0.70;99.90;;;;;;5008699;28;20117;-37
2022/12/12 07:58:36;;;;;;;14.07;6.45;;;0.70;99.90;;;;;;5006822;28;20053;-38
2022/12/12 08:01:24;;;;;;;16.15;6.20;;;0.70;99.90;;;;;;5005450;28;20088;-38
2022/12/12 08:03:50;;;;;;;16.02;6.63;;;0.80;99.90;;;;;;5004757;28;20510;-38
2022/12/12 08:06:17;;;;;;;14.15;6.05;;;0.80;99.90;;;;;;5007292;28;20057;-37
2022/12/12 08:08:44;;;;;;;16.00;6.78;;;0.80;99.90;;;;;;5002927;28;20092;-37
2022/12/12 08:11:13;;;;;;;16.45;6.93;;;0.80;99.90;;;;;;5007688;28;20562;-38
2022/12/12 08:13:40;;;;;;;16.83;7.45;;;0.80;99.90;;;;;;5009591;28;20513;-37
2022/12/12 08:16:10;;;;;;;15.15;6.65;;;0.80;99.90;;;;;;5010100;28;20487;-37
2022/12/12 08:18:36;;;;;;;13.98;6.20;;;0.80;99.90;;;;;;5006945;28;20038;-39
2022/12/12 08:21:06;;;;;;;14.65;6.93;;;0.80;99.90;;;;;;5007642;28;20041;-43
2022/12/12 08:23:32;;;;;;;16.13;7.28;;;0.80;99.90;;;;;;5003900;28;20116;-42
2022/12/12 08:26:05;;;;;;;14.70;6.78;;;0.80;99.90;;;;;;5007145;28;20455;-46
2022/12/12 08:28:32;;;;;;;15.27;6.70;;;0.80;99.90;;;;;;5004117;28;20120;-44
2022/12/12 08:30:57;;;;;;;14.60;6.30;;;0.80;99.90;;;;;;5006208;28;20047;-42
2022/12/12 08:33:23;;;;;;;17.75;7.40;;;0.80;99.90;;;;;;5010242;28;20084;-43
2022/12/12 08:35:49;;;;;;;16.90;7.20;;;0.80;99.90;;;;;;5010622;28;20450;-41
2022/12/12 08:38:14;;;;;;;14.82;6.85;;;0.80;99.90;;;;;;5008925;28;20129;-44
2022/12/12 08:40:40;;;;;;;14.65;7.07;;;0.90;99.90;;;;;;5005456;28;20049;-44
2022/12/12 08:43:08;;;;;;;15.15;6.93;;;0.90;99.90;;;;;;5009021;28;20426;-44
2022/12/12 08:45:35;;;;;;;15.65;7.38;;;0.90;99.90;;;;;;4999885;28;20787;-44
2022/12/12 08:48:00;;;;;;;15.82;6.60;;;0.90;99.90;;;;;;5006036;28;20052;-43
2022/12/12 08:50:26;;;;;;;13.85;6.57;;;0.90;99.90;;;;;;5006244;28;20038;-47
2022/12/12 08:52:52;;;;;;;18.73;7.80;;;1.00;99.90;;;;;;5008552;28;20042;-46
2022/12/12 08:55:17;;;;;;;20.20;7.95;;;1.00;99.90;;;;;;5005084;28;20045;-43
2022/12/12 08:57:43;;;;;;;16.80;7.10;;;1.00;99.90;;;;;;5007723;28;20073;-45
2022/12/12 09:00:09;;;;;;;18.45;8.05;;;1.00;99.90;;;;;;5006265;28;20036;-44
2022/12/12 09:02:35;;;;;;;19.58;7.90;;;1.00;99.90;;;;;;5004699;28;20157;-38
2022/12/12 09:05:01;;;;;;;18.98;8.10;;;1.00;99.90;;;;;;5007888;28;20530;-38
2022/12/12 09:07:26;;;;;;;20.83;8.15;;;1.00;99.90;;;;;;5011366;28;20042;-39
2022/12/12 09:09:52;;;;;;;16.45;7.20;;;1.00;99.90;;;;;;5006390;28;20168;-39
2022/12/12 09:12:18;;;;;;;20.25;8.68;;;1.00;99.90;;;;;;5006580;28;20038;-38
2022/12/12 09:14:43;;;;;;;18.35;7.95;;;1.10;99.90;;;;;;5005665;28;20041;-39
2022/12/12 09:17:09;;;;;;;16.70;7.78;;;1.10;99.90;;;;;;5010560;28;20402;-39
2022/12/12 09:19:35;;;;;;;21.17;8.25;;;1.10;99.90;;;;;;5006028;28;20082;-40
2022/12/12 09:22:01;;;;;;;20.55;8.88;;;1.10;99.90;;;;;;5006448;28;20054;-39
2022/12/12 09:24:27;;;;;;;19.17;8.95;;;1.20;99.90;;;;;;5025872;28;20034;-38
2022/12/12 09:26:53;;;;;;;19.27;8.55;;;1.10;99.90;;;;;;5007368;28;20474;-40
2022/12/12 09:29:18;;;;;;;19.15;8.20;;;1.20;99.90;;;;;;5007921;28;20034;-38
2022/12/12 09:31:44;;;;;;;17.05;8.07;;;1.20;99.90;;;;;;5010323;28;20042;-38
2022/12/12 09:34:10;;;;;;;19.42;8.85;;;1.20;99.90;;;;;;5007084;28;20410;-39
2022/12/12 09:36:35;;;;;;;18.48;8.13;;;1.30;99.90;;;;;;5003829;28;20042;-38
2022/12/12 09:39:02;;;;;;;21.60;9.15;;;1.30;99.90;;;;;;5003723;28;20046;-39
2022/12/12 09:41:29;;;;;;;21.70;9.25;;;1.30;99.90;;;;;;5006096;28;20056;-38
2022/12/12 09:44:06;;;;;;;22.27;9.98;;;1.30;99.90;;;;;;5004914;28;20025;-38
2022/12/12 09:46:36;;;;;;;21.98;9.63;;;1.40;99.90;;;;;;5006940;28;20105;-38
2022/12/12 09:49:14;;;;;;;21.23;10.25;;;1.40;99.90;;;;;;5007110;28;20038;-38
2022/12/12 09:51:44;;;;;;;23.75;10.57;;;1.40;99.90;;;;;;5001823;28;20487;-38
2022/12/12 09:54:20;;;;;;;21.63;9.75;;;1.40;99.90;;;;;;5006956;28;20040;-38
2022/12/12 09:57:00;;;;;;;22.08;9.45;;;1.40;99.90;;;;;;5006919;28;20060;-38
2022/12/12 09:59:34;;;;;;;21.77;9.80;;;1.50;99.90;;;;;;5002590;28;20148;-38
2022/12/12 10:02:18;;;;;;;25.00;10.73;;;1.40;99.90;;;;;;5005441;28;20037;-40
2022/12/12 10:05:14;;;;;;;22.58;9.60;;;1.50;99.90;;;;;;5008584;28;20040;-39
2022/12/12 10:08:11;;;;;;;20.42;9.60;;;1.50;99.90;;;;;;5005760;28;20430;-39
2022/12/12 10:10:46;;;;;;;20.95;9.77;;;1.50;99.90;;;;;;5003013;28;20038;-39
2022/12/12 10:13:26;;;;;;;23.48;10.40;;;1.60;99.90;;;;;;5003038;28;20496;-39
2022/12/12 10:16:01;;;;;;;21.35;10.23;;;1.60;99.90;;;;;;5004327;28;20038;-39
2022/12/12 10:18:40;;;;;;;23.27;10.52;;;1.60;99.90;;;;;;5009637;28;20029;-39
2022/12/12 10:21:17;;;;;;;23.95;9.93;;;1.60;99.90;;;;;;5004681;28;20045;-39
2022/12/12 10:23:47;;;;;;;24.35;11.90;;;1.70;99.90;;;;;;5023786;28;20434;-38
2022/12/12 10:26:19;;;;;;;22.63;10.23;;;1.70;99.90;;;;;;5009167;28;20136;-38
2022/12/12 10:28:51;;;;;;;25.70;10.20;;;1.60;99.90;;;;;;5003965;28;20501;-37
2022/12/12 10:31:29;;;;;;;23.17;10.43;;;1.70;99.90;;;;;;5000420;28;20121;-38
2022/12/12 10:34:34;;;;;;;25.67;10.45;;;1.70;99.90;;;;;;5002096;28;20049;-39
2022/12/12 10:37:27;;;;;;;20.85;9.15;;;1.70;99.90;;;;;;5004156;28;20517;-38
2022/12/12 10:40:04;;;;;;;25.35;10.38;;;1.70;99.90;;;;;;5003403;28;20041;-39
2022/12/12 10:42:53;;;;;;;23.45;10.75;;;1.70;99.90;;;;;;5004241;28;20533;-39
2022/12/12 10:45:42;;;;;;;25.23;11.52;;;1.80;99.90;;;;;;5005151;28;20411;-39
2022/12/12 10:48:07;;;;;;;22.88;10.65;;;1.80;99.90;;;;;;4991091;28;20521;-39
2022/12/12 10:50:37;;;;;;;22.98;11.02;;;1.80;99.90;;;;;;5001965;28;20041;-39
2022/12/12 10:53:06;;;;;;;25.58;11.52;;;1.80;99.90;;;;;;5005540;28;20547;-39
2022/12/12 10:55:48;;;;;;;24.52;9.98;;;1.80;99.90;;;;;;5006660;28;20042;-38
2022/12/12 10:58:16;;;;;;;21.65;10.65;;;1.80;99.90;;;;;;5004407;28;20042;-40
2022/12/12 11:00:44;;;;;;;25.42;11.85;;;1.80;99.90;;;;;;5002951;28;20380;-39
2022/12/12 11:03:49;;;;;;;24.92;10.80;;;1.90;99.90;;;;;;5003240;28;20042;-39
2022/12/12 11:06:25;;;;;;;25.08;11.60;;;1.90;99.90;;;;;;5005612;28;20046;-38
2022/12/12 11:09:05;;;;;;;26.63;11.50;;;1.90;99.90;;;;;;5007347;28;20049;-37
2022/12/12 11:11:30;;;;;;;23.27;11.18;;;1.90;99.90;;;;;;4999656;28;20560;-38
2022/12/12 11:14:18;;;;;;;28.30;12.23;;;2.00;99.90;;;;;;5006630;28;20046;-38
2022/12/12 11:16:44;;;;;;;26.08;12.23;;;2.00;99.90;;;;;;5003134;28;20582;-38
2022/12/12 11:19:22;;;;;;;27.67;12.00;;;2.00;99.90;;;;;;5004406;28;20153;-43
2022/12/12 11:21:49;;;;;;;24.15;11.45;;;2.10;99.90;;;;;;5003505;28;20558;-44
2022/12/12 11:24:19;;;;;;;29.20;12.20;;;2.10;99.90;;;;;;5007341;28;20049;-39
2022/12/12 11:26:46;;;;;;;30.63;12.02;;;2.10;99.90;;;;;;5003225;28;20570;-39
2022/12/12 11:29:43;;;;;;;25.60;12.18;;;2.10;99.90;;;;;;5004517;28;20100;-39
2022/12/12 11:32:39;;;;;;;26.20;12.60;;;2.20;99.90;;;;;;5002026;28;20057;-39
2022/12/12 11:35:20;;;;;;;30.70;13.93;;;2.20;99.90;;;;;;5000816;28;20061;-39
2022/12/12 11:37:50;;;;;;;28.38;12.70;;;2.30;99.90;;;;;;5005698;28;20041;-38
2022/12/12 11:40:36;;;;;;;28.75;13.00;;;2.40;99.90;;;;;;5009170;28;20041;-40
2022/12/12 11:43:29;;;;;;;31.45;13.23;;;2.50;99.90;;;;;;5007957;28;20038;-39
2022/12/12 11:46:26;;;;;;;27.77;12.02;;;2.70;99.90;;;;;;5008693;28;20121;-40
2022/12/12 11:48:51;;;;;;;30.42;13.07;;;2.70;99.90;;;;;;5008189;28;20042;-39
2022/12/12 11:51:38;;;;;;;24.52;12.00;;;2.70;99.90;;;;;;5004144;28;20034;-47
2022/12/12 11:54:13;;;;;;;26.13;12.07;;;2.70;99.90;;;;;;5004936;28;20410;-39
2022/12/12 11:57:03;;;;;;;21.30;10.60;;;2.70;99.90;;;;;;5001264;28;20115;-39
2022/12/12 11:59:48;;;;;;;25.15;11.15;;;2.70;99.90;;;;;;5005746;28;20038;-39
2022/12/12 12:02:51;;;;;;;24.10;10.93;;;2.60;99.90;;;;;;5007210;28;20033;-38
2022/12/12 12:05:32;;;;;;;25.92;12.07;;;2.50;99.90;;;;;;5010012;28;20049;-39
2022/12/12 12:08:00;;;;;;;28.95;12.27;;;2.50;99.90;;;;;;5007147;28;20092;-39
2022/12/12 12:10:53;;;;;;;24.92;11.90;;;2.50;99.90;;;;;;5006847;28;20037;-39
2022/12/12 12:13:37;;;;;;;24.38;11.57;;;2.60;99.90;;;;;;5003628;28;20526;-39
2022/12/12 12:16:24;;;;;;;25.80;10.07;;;2.70;99.90;;;;;;5020045;28;20129;-40
2022/12/12 12:19:07;;;;;;;23.35;11.55;;;2.70;99.90;;;;;;5003053;28;20046;-39
2022/12/12 12:21:56;;;;;;;22.90;11.63;;;2.70;99.90;;;;;;5006102;28;20038;-39
2022/12/12 12:24:27;;;;;;;22.55;11.63;;;2.80;99.90;;;;;;5009490;28;20046;-39
2022/12/12 12:27:11;;;;;;;23.70;12.63;;;2.80;99.90;;;;;;5000540;28;20155;-39
2022/12/12 12:29:40;;;;;;;23.00;10.75;;;2.80;99.90;;;;;;5005018;28;20455;-39
2022/12/12 12:32:22;;;;;;;23.02;11.25;;;3.00;99.90;;;;;;5008991;28;20457;-39
2022/12/12 12:35:41;;;;;;;24.02;11.23;;;3.80;99.90;;;;;;5023315;28;20089;-39
2022/12/12 12:38:33;;;;;;;26.98;12.05;;;5.10;99.90;;;;;;4958154;28;20424;-38
2022/12/12 12:41:18;;;;;;;19.83;9.90;;;6.30;99.90;;;;;;5007399;28;20167;-38
2022/12/12 12:44:17;;;;;;;20.98;10.80;;;6.70;99.90;;;;;;5005879;28;20076;-38
2022/12/12 12:47:10;;;;;;;20.95;11.00;;;6.90;99.90;;;;;;5000562;28;20046;-39
2022/12/12 12:49:44;;;;;;;20.45;10.48;;;7.20;99.80;;;;;;5008742;28;20052;-38
2022/12/12 12:52:24;;;;;;;16.42;10.20;;;7.50;99.70;;;;;;5005746;28;20046;-39
2022/12/12 12:54:55;;;;;;;20.90;10.50;;;7.50;99.90;;;;;;5006147;28;20100;-39
2022/12/12 12:57:27;;;;;;;21.13;10.85;;;7.10;99.60;;;;;;5007528;28;20506;-39
2022/12/12 12:59:57;;;;;;;18.77;10.18;;;6.40;99.90;;;;;;5005178;28;20490;-38
2022/12/12 13:02:48;;;;;;;18.00;9.00;;;5.60;99.90;;;;;;5002899;28;20026;-38
2022/12/12 13:05:35;;;;;;;20.20;10.32;;;5.00;99.90;;;;;;5007006;28;20033;-39
2022/12/12 13:08:13;;;;;;;22.42;10.38;;;4.50;99.90;;;;;;5004634;28;20100;-39
2022/12/12 13:10:44;;;;;;;20.30;10.23;;;4.30;99.90;;;;;;5005266;28;20072;-38
2022/12/12 13:13:29;;;;;;;22.77;11.13;;;4.60;99.90;;;;;;5000925;28;20128;-38
2022/12/12 13:15:58;;;;;;;20.08;10.05;;;4.90;99.90;;;;;;5006435;28;20068;-47
2022/12/12 13:18:26;;;;;;;22.23;11.07;;;5.00;99.90;;;;;;5002667;28;20030;-38
2022/12/12 13:21:05;;;;;;;19.92;9.98;;;4.70;99.90;;;;;;5005989;28;20049;-40
2022/12/12 13:24:00;;;;;;;18.75;9.65;;;4.40;99.90;;;;;;5004629;28;20084;-39
2022/12/12 13:26:28;;;;;;;24.00;11.50;;;4.00;99.90;;;;;;5005792;28;20057;-40